windsock image

Welcome to Bigfield Strip.

anemometer image
     

 Help for dials.  
 
Local Met:

Wind:   
10 Min average:  
277 ° / 3.1 kts (4.3)
280° / 2.9

Temperature:  
16.5°C C
Dew Point:  
13.2°C C
QNH:  
Trend:  
1019.8 mb mb
+0.1mb/hr
BigField Strip. This image updates approximately every minute, it can have a two minute delay.  
 

Humidity:  
81 %
Sunrise:   04:16z
Sunset:   20:03z
Updated:  
  UTC
 
   More met info, trends, radar, history etc. available here   

LUTON Metar   EGGW 252120Z AUTO 25007KT 9999 NCD 17/12 Q1020
 
  TAF   2016/07/25 18:15 TAF EGGW 251700Z 2518/2618 26011KT 9999 SCT045
 
BENSON Metar   EGUB 252050Z 21006KT 9999 BKN045 17/12 Q1020 BLU NOSIG
 
  TAF   2016/07/25 21:03 TAF TAF EGUB 251952Z 2521/2603 26006KT 9999 FEW030
 
Big Field view 1 icon   Big Field view 2 icon   Big Field view 3 icon   Chart AL3a in PDF icon   Chart AL3a in Word icon

WARNING:
This information is provided by the Airstrip unofficial weather station, DO NOT depend on the data provided here for any purpose.
This page is updated for latest Metars & TAF's every 5 minutes. Refresh the browser to check for the lastest.
Page designed for a minimum browser size of 1024x768.
© Copyright 2016 BigField Strip. This page auto generated 21:56 UTC - 25/07/2016   Contact Us
Valid HTML 4.01 Transitional     Windows uptime: 0 Days 19 Hours 24 Minutes 15 Seconds    WD started: 02:37 25/07/16    Free memory: 1529MB     Valid CSS!